CW6037 Weather Reports


time (UTC)temp
F
wind
direction
speed
knots
gust
knots
rain 1hr
in
rain 24hr
in
rain mn
in
humidity
%
barometer
mb
20260506134742 60 200 0.9 5.2 0.06 0.07 0.07 92 1007.8
20260506134023 60 227 0.9 5.2 0.07 0.07 0.07 91 1007.7
20260506133522 60 242 0.0 2.6 0.06 0.06 0.06 91 1007.7
20260506133024 60 196 0.9 2.6 0.06 0.06 0.06 91 1007.8
20260506133006 60 144 0.9 3.5 0.05 0.05 0.05 90 1008.0
20260506132019 60 129 1.7 3.5 0.04 0.04 0.04 89 1008.0
20260506131740 60 236 1.7 5.2 0.04 0.04 0.04 89 1008.1
20260506131017 60 224 1.7 5.2 0.03 0.03 0.03 88 1008.2
20260506130519 60 186 1.7 4.3 0.02 0.02 0.02 88 1008.2
20260506130015 60 225 1.7 5.2 0.02 0.02 0.02 87 1008.1
20260506125515 60 285 0.9 5.2 0.01 0.01 0.01 87 1008.1
20260506125015 60 240 0.9 5.2 0.01 0.01 0.01 87 1007.9
20260506124515 60 258 0.9 5.2 0.01 0.01 0.01 87 1007.8
20260506124015 60 250 0.9 2.6 0.00 0.00 0.00 87 1007.5
20260506123515 59 169 0.9 2.6 0.00 0.00 0.00 88 1007.3
20260506122957 57 260 0.9 3.5 0.00 0.00 0.00 89 1007.2
20260506122011 56 51 0.9 2.6 0.00 0.00 0.00 89 1007.4
20260506121828 56 277 0.0 1.7 0.00 0.00 0.00 89 1007.4
20260506121752 56 277 0.0 0.0 0.00 0.00 0.00 89 1007.5
20260506120507 55 277 0.0 0.0 0.00 0.00 0.00 90 1007.5
20260506120233 55 277 0.0 0.0 0.00 0.00 0.00 90 1007.6
20260506115506 55 277 0.0 0.0 0.00 0.00 0.00 90 1007.6
20260506115008 55 277 0.0 0.0 0.00 0.00 0.00 90 1007.4
20260506114505 55 277 0.0 0.0 0.00 0.00 0.00 90 1007.5
20260506114457 55 277 0.0 0.0 0.00 0.00 0.00 90 1007.6
20260506113505 55 277 0.0 0.0 0.00 0.00 0.00 90 1007.5
20260506113008 55 277 0.0 0.0 0.00 0.00 0.00 90 1007.5
20260506112951 55 277 0.0 0.0 0.00 0.00 0.00 90 1007.5
20260506112004 54 277 0.0 0.0 0.00 0.00 0.00 90 1007.5
20260506111458 54 277 0.0 0.0 0.00 0.00 0.00 90 1007.5
20260506111001 54 277 0.0 0.0 0.00 0.00 0.00 90 1007.5
20260506110501 54 277 0.0 0.0 0.00 0.00 0.00 90 1007.4
20260506110227 54 277 0.0 0.0 0.00 0.00 0.00 90 1007.4
20260506105501 54 277 0.0 0.0 0.00 0.00 0.00 90 1007.3
20260506104958 54 277 0.0 0.0 0.00 0.00 0.00 90 1007.2
20260506104455 54 277 0.0 0.0 0.00 0.00 0.00 90 1007.2
20260506103955 54 277 0.0 0.0 0.00 0.00 0.00 90 1006.8
20260506103456 54 277 0.0 0.0 0.00 0.00 0.00 90 1006.8
20260506103441 54 277 0.0 0.0 0.00 0.00 0.00 90 1006.9
20260506102452 54 277 0.0 0.0 0.00 0.00 0.00 90 1006.9
20260506101953 54 277 0.0 0.0 0.00 0.00 0.00 90 1007.0
20260506101455 54 277 0.0 0.0 0.00 0.00 0.00 90 1006.9
20260506100952 53 277 0.0 0.0 0.00 0.00 0.00 90 1006.8
20260506100453 53 277 0.0 0.0 0.00 0.00 0.00 90 1006.8
20260506095952 53 277 0.0 0.0 0.00 0.00 0.00 90 1007.0
20260506095453 53 277 0.0 0.0 0.00 0.00 0.00 90 1007.1
20260506095221 53 277 0.0 0.0 0.00 0.00 0.00 90 1007.1
20260506094720 53 277 0.0 0.0 0.00 0.00 0.00 90 1007.1
20260506094209 53 277 0.0 0.9 0.00 0.00 0.00 90 1007.0
20260506093451 53 277 0.0 0.9 0.00 0.00 0.00 90 1007.0
20260506092951 53 277 0.0 0.0 0.00 0.00 0.00 90 1007.0
20260506092449 53 277 0.0 0.9 0.00 0.00 0.00 89 1006.9
20260506091950 53 277 0.0 0.9 0.00 0.00 0.00 90 1006.9
20260506091448 53 277 0.0 0.9 0.00 0.00 0.00 90 1007.0
20260506090948 53 277 0.0 0.9 0.00 0.00 0.00 90 1007.1
20260506090448 53 277 0.0 0.9 0.00 0.00 0.00 90 1007.2
20260506085949 53 277 0.0 0.9 0.00 0.00 0.00 90 1007.1
20260506085450 53 277 0.0 0.9 0.00 0.00 0.00 90 1007.3
20260506085207 53 277 0.0 0.0 0.00 0.00 0.00 89 1007.2
20260506084448 53 277 0.0 0.0 0.00 0.00 0.00 90 1007.3
20260506083948 53 277 0.0 0.0 0.00 0.00 0.00 90 1007.5
20260506083715 53 277 0.0 0.9 0.00 0.00 0.00 89 1007.4
20260506082950 53 277 0.0 1.7 0.00 0.00 0.00 89 1007.4
20260506082925 53 277 0.9 1.7 0.00 0.00 0.00 89 1007.4
20260506081945 53 277 0.0 1.7 0.00 0.00 0.00 90 1007.3
20260506081442 53 277 0.0 0.0 0.00 0.00 0.00 90 1007.2
20260506080941 53 277 0.0 0.9 0.00 0.00 0.00 90 1007.1
20260506080440 53 277 0.0 0.9 0.00 0.00 0.00 90 1007.2
20260506073430 53 277 0.0 0.0 0.00 0.00 0.00 90 1007.3
20260506072929 53 277 0.0 0.0 0.00 0.00 0.00 90 1007.4
20260506072647 53 277 0.0 0.0 0.00 0.00 0.00 90 1007.5
20260506071922 53 277 0.0 0.0 0.00 0.00 0.00 90 1007.5
20260506071420 53 277 0.0 0.9 0.00 0.00 0.00 90 1007.6
20260506071145 53 277 0.0 0.9 0.00 0.00 0.00 90 1007.5
20260506070641 53 277 0.0 0.9 0.00 0.00 0.00 90 1007.4
20260506061904 52 277 0.0 1.7 0.00 0.00 0.00 89 1007.7
20260506061415 52 277 0.0 0.9 0.00 0.00 0.00 89 1007.9
20260506061404 52 277 0.0 1.7 0.00 0.00 0.00 89 1007.8
20260506060403 52 277 0.0 0.9 0.00 0.00 0.00 89 1007.8
20260506051354 53 277 0.0 0.9 0.00 0.00 0.00 87 1008.2
20260506050855 53 277 0.0 0.9 0.00 0.00 0.00 87 1008.2
20260506050352 54 277 0.0 0.0 0.00 0.00 0.00 86 1008.2
20260506044846 54 277 0.0 0.0 0.00 0.00 0.00 86 1008.2
20260506044340 55 277 0.0 0.9 0.00 0.00 0.00 85 1008.2
20260506043842 55 277 0.0 0.9 0.00 0.00 0.00 85 1008.2
20260506043340 55 277 0.0 0.9 0.00 0.00 0.00 85 1008.3
20260506042838 55 277 0.0 0.9 0.00 0.00 0.00 84 1008.3
20260506042338 55 277 0.0 0.9 0.00 0.00 0.00 84 1008.4
20260506041834 56 277 0.0 0.9 0.00 0.00 0.00 84 1008.5
20260506041552 56 277 0.0 0.0 0.00 0.00 0.00 84 1008.5
20260506040831 56 277 0.0 0.0 0.00 0.00 0.00 82 1008.3
20260506040822 56 277 0.0 0.9 0.00 0.00 0.00 82 1008.5
20260506035829 56 277 0.0 0.9 0.00 0.00 0.00 82 1008.5
20260506035542 57 277 0.0 0.0 0.00 0.00 0.00 81 1008.5
20260506034825 57 277 0.0 0.0 0.00 0.00 0.00 81 1008.5
20260506034326 57 277 0.0 0.9 0.00 0.00 0.00 81 1008.5
20260506033823 58 277 0.0 0.9 0.00 0.00 0.00 82 1008.5
20260506033320 58 277 0.0 0.0 0.00 0.00 0.00 80 1008.4
20260506032819 58 277 0.0 0.0 0.00 0.00 0.00 80 1008.4
20260506032319 59 277 0.0 0.0 0.00 0.00 0.00 80 1008.4
20260506031817 59 277 0.0 0.9 0.00 0.00 0.00 80 1008.4
20260506031315 59 277 0.0 0.9 0.00 0.00 0.00 79 1008.3
20260506030813 60 277 0.0 0.0 0.00 0.00 0.00 78 1008.4
20260506030311 60 277 0.0 0.0 0.00 0.00 0.00 77 1008.3
20260506025809 60 277 0.0 0.0 0.00 0.00 0.00 76 1008.3
20260506025309 61 277 0.0 1.7 0.00 0.00 0.00 76 1008.3
20260506024808 61 277 0.0 1.7 0.00 0.00 0.00 74 1008.3
20260506024309 62 277 0.0 0.9 0.00 0.00 0.00 75 1008.2
20260506023808 62 277 0.0 0.9 0.00 0.00 0.00 74 1008.3
20260506023308 62 277 0.0 0.9 0.00 0.00 0.00 73 1008.3
20260506023032 62 277 0.0 0.9 0.00 0.00 0.00 73 1008.3
20260506022308 63 277 0.0 0.9 0.00 0.00 0.00 74 1008.4
20260506021809 63 277 0.0 1.7 0.00 0.00 0.00 74 1008.4
20260506021303 64 277 0.9 1.7 0.00 0.00 0.00 74 1008.4
20260506020803 64 277 0.9 1.7 0.00 0.00 0.00 73 1008.4
20260506020303 64 277 0.0 0.9 0.00 0.00 0.00 71 1008.4
20260506015803 64 277 0.0 0.9 0.00 0.00 0.00 70 1008.2
20260506015305 65 277 0.0 0.9 0.00 0.00 0.00 72 1008.3
20260506014804 65 277 0.0 0.9 0.00 0.00 0.00 72 1008.3
20260506014303 65 277 0.0 1.7 0.00 0.00 0.00 71 1008.3
20260506014025 65 277 0.9 1.7 0.00 0.00 0.00 66 1008.2
20260506013302 66 277 0.9 1.7 0.00 0.00 0.00 65 1008.2
20260506013252 66 277 0.0 1.7 0.00 0.00 0.00 66 1008.0
20260506012903 66 277 0.9 1.7 0.00 0.00 0.00 66 1008.1
20260506012025 66 277 0.0 0.9 0.00 0.00 0.00 68 1007.9
20260506011302 67 277 0.0 0.9 0.00 0.00 0.00 67 1007.9
20260506011025 67 277 0.0 0.9 0.00 0.00 0.00 65 1007.7
20260506010303 67 277 0.0 0.9 0.00 0.00 0.00 66 1007.6
20260506005800 68 277 0.0 0.9 0.00 0.00 0.00 67 1007.5
20260506005525 68 277 0.0 0.9 0.00 0.00 0.00 66 1007.5
20260506004801 68 277 0.0 1.7 0.00 0.00 0.00 65 1007.4
20260506004303 69 277 0.9 1.7 0.00 0.00 0.00 65 1007.3
20260506003803 69 277 0.9 1.7 0.00 0.00 0.00 65 1007.4
20260506003300 69 277 0.9 1.7 0.00 0.00 0.00 64 1007.5
20260506002801 69 277 0.0 1.7 0.00 0.00 0.00 64 1007.4
20260506002301 69 277 0.0 0.9 0.00 0.00 0.00 63 1007.4
20260506001802 70 277 0.0 1.7 0.00 0.00 0.00 62 1007.4
20260506001301 70 277 0.0 1.7 0.00 0.00 0.00 59 1007.3
20260506000801 70 277 0.0 0.9 0.00 0.00 0.00 60 1007.3
20260506000256 70 277 0.0 1.7 0.00 0.00 0.00 59 1007.3
20260505235756 70 277 0.0 1.7 0.00 0.00 0.00 59 1007.2
20260505235256 70 277 0.0 1.7 0.00 0.00 0.00 60 1007.3
20260505234756 71 277 0.0 0.9 0.00 0.00 0.00 58 1007.2
20260505234255 71 277 0.0 0.9 0.00 0.00 0.00 59 1007.2
20260505233752 71 277 0.0 1.7 0.00 0.00 0.00 58 1007.2
20260505233252 71 277 0.0 1.7 0.00 0.00 0.00 58 1007.2
20260505232752 71 277 0.0 1.7 0.00 0.00 0.00 56 1007.1
20260505232253 71 277 0.9 1.7 0.00 0.00 0.00 59 1007.1
20260505231752 72 277 0.9 1.7 0.00 0.00 0.00 58 1007.2
20260505231516 72 278 0.0 1.7 0.00 0.00 0.00 59 1007.1
20260505230750 72 277 0.0 0.9 0.00 0.00 0.00 56 1007.1
20260505230250 73 277 0.0 0.9 0.00 0.00 0.00 56 1007.0
20260505225750 73 278 0.9 2.6 0.00 0.00 0.00 53 1006.9
20260505225242 73 278 0.9 2.6 0.00 0.00 0.00 53 1006.9
20260505225000 73 277 0.9 3.5 0.00 0.00 0.00 52 1006.8
20260505224236 73 277 0.9 3.5 0.00 0.00 0.00 52 1006.7
20260505223736 74 232 0.0 1.7 0.00 0.00 0.00 52 1006.7
20260505223236 74 232 0.9 1.7 0.00 0.00 0.00 52 1006.6
20260505222735 74 232 0.9 6.1 0.00 0.00 0.00 51 1006.6
20260505222232 74 222 0.9 6.1 0.00 0.00 0.00 50 1006.6
20260505221733 74 150 1.7 6.1 0.00 0.00 0.00 51 1006.8
20260505221235 74 211 1.7 6.1 0.00 0.00 0.00 51 1006.7
20260505220732 74 289 1.7 3.5 0.00 0.00 0.00 51 1006.7
20260505220232 74 211 1.7 4.3 0.00 0.00 0.00 50 1006.7
20260505215950 74 212 1.7 4.3 0.00 0.00 0.00 49 1006.7
20260505215229 74 290 1.7 7.0 0.00 0.00 0.00 49 1006.7
20260505214728 75 252 1.7 7.0 0.00 0.00 0.00 47 1006.6
20260505214455 75 190 2.6 6.1 0.00 0.00 0.00 47 1006.6
20260505213955 76 157 2.6 6.1 0.00 0.00 0.00 46 1006.6
20260505213228 76 236 1.7 7.0 0.00 0.00 0.00 46 1006.4
20260505212945 77 246 2.6 10.4 0.00 0.00 0.00 45 1006.6
20260505212216 77 192 3.5 10.4 0.00 0.00 0.00 45 1006.4
20260505211714 77 114 3.5 8.7 0.00 0.00 0.00 45 1006.6
20260505211215 78 209 5.2 18.2 0.00 0.00 0.00 44 1006.6
20260505210714 78 193 6.1 18.2 0.00 0.00 0.00 44 1006.6
20260505210214 78 257 6.1 19.1 0.00 0.00 0.00 43 1006.7
20260505205714 78 281 6.1 19.1 0.00 0.00 0.00 41 1006.3
20260505205214 78 146 4.3 15.6 0.00 0.00 0.00 40 1006.0
20260505204714 78 255 4.3 14.8 0.00 0.00 0.00 40 1005.8
20260505204214 78 265 4.3 10.4 0.00 0.00 0.00 39 1005.8
20260505203717 78 256 5.2 13.9 0.00 0.00 0.00 39 1005.9
20260505203434 78 245 5.2 16.5 0.00 0.00 0.00 38 1005.9
20260505202714 78 237 6.1 18.2 0.00 0.00 0.00 38 1005.8
20260505202214 78 200 6.1 18.2 0.00 0.00 0.00 38 1005.8
20260505201714 78 153 5.2 13.9 0.00 0.00 0.00 37 1005.9
20260505201216 78 182 4.3 14.8 0.00 0.00 0.00 37 1005.9
20260505200714 79 272 4.3 14.8 0.00 0.00 0.00 37 1005.8
20260505200212 79 205 6.1 15.6 0.00 0.00 0.00 36 1005.7
20260505195714 80 196 7.0 19.1 0.00 0.00 0.00 36 1005.9
20260505195212 81 247 7.0 19.1 0.00 0.00 0.00 35 1005.8
20260505194710 81 267 6.1 20.0 0.00 0.00 0.00 35 1005.8
20260505194207 81 234 7.0 20.0 0.00 0.00 0.00 33 1005.9
20260505193930 80 274 7.0 17.4 0.00 0.00 0.00 36 1005.9
20260505193206 80 296 6.1 17.4 0.00 0.00 0.00 37 1005.9
20260505192709 80 288 5.2 14.8 0.00 0.00 0.00 37 1005.9
20260505192206 79 215 5.2 12.2 0.00 0.00 0.00 36 1006.0
20260505191707 79 234 6.1 17.4 0.00 0.00 0.00 36 1006.2
20260505191206 80 252 6.1 17.4 0.00 0.00 0.00 35 1006.2
20260505190705 80 281 6.1 16.5 0.00 0.00 0.00 35 1006.4
20260505190204 80 250 6.1 17.4 0.00 0.00 0.00 37 1006.3
20260505185707 80 259 6.1 17.4 0.00 0.00 0.00 36 1006.4
20260505185202 80 279 6.1 17.4 0.00 0.00 0.00 36 1006.8
20260505184702 81 293 6.1 17.4 0.00 0.00 0.00 36 1006.7
20260505184202 80 256 6.1 18.2 0.00 0.00 0.00 38 1006.8
20260505183702 80 285 7.8 23.5 0.00 0.00 0.00 37 1006.8
20260505183204 81 276 7.0 23.5 0.00 0.00 0.00 37 1006.9
20260505182702 81 234 6.1 15.6 0.00 0.00 0.00 38 1006.8
20260505182204 80 286 7.8 15.6 0.00 0.00 0.00 38 1006.9
20260505181702 80 279 7.8 20.9 0.00 0.00 0.00 37 1007.2
20260505181202 80 259 7.0 20.9 0.00 0.00 0.00 40 1007.2
20260505180702 80 306 6.1 14.8 0.00 0.00 0.00 40 1007.2
20260505180424 80 326 6.1 17.4 0.00 0.00 0.00 41 1007.4
20260505175702 80 200 7.0 21.7 0.00 0.00 0.00 41 1007.4
20260505175202 79 250 7.0 21.7 0.00 0.00 0.00 40 1007.5
20260505174700 80 237 7.0 18.2 0.00 0.00 0.00 39 1007.8
20260505174423 80 242 4.3 18.2 0.00 0.00 0.00 38 1007.6
20260505173700 80 310 4.3 13.9 0.00 0.00 0.00 41 1007.5
20260505173158 79 169 5.2 13.9 0.00 0.00 0.00 39 1007.3
20260505172657 79 188 5.2 12.2 0.00 0.00 0.00 42 1007.3
20260505172158 79 252 5.2 11.3 0.00 0.00 0.00 43 1007.5
20260505171655 79 175 6.1 13.9 0.00 0.00 0.00 44 1007.4
20260505171156 79 263 5.2 17.4 0.00 0.00 0.00 43 1007.3
20260505170656 79 257 5.2 17.4 0.00 0.00 0.00 45 1007.4
20260505170157 79 267 5.2 17.4 0.00 0.00 0.00 44 1007.6
20260505165655 79 196 5.2 14.8 0.00 0.00 0.00 44 1007.4
20260505165154 78 203 5.2 13.0 0.00 0.00 0.00 46 1007.5
20260505164655 79 123 4.3 13.0 0.00 0.00 0.00 43 1007.6
20260505164154 78 196 4.3 13.0 0.00 0.00 0.00 46 1007.7
20260505163656 78 151 5.2 12.2 0.00 0.00 0.00 44 1007.8
20260505163425 78 227 5.2 13.0 0.00 0.00 0.00 44 1007.8
20260505162653 78 271 5.2 13.0 0.00 0.00 0.00 46 1007.8
20260505162416 78 173 4.3 17.4 0.00 0.00 0.00 46 1007.9
20260505161914 78 201 4.3 17.4 0.00 0.00 0.00 45 1007.9
20260505161156 78 323 5.2 14.8 0.00 0.00 0.00 46 1008.0
20260505160654 78 190 5.2 14.8 0.00 0.00 0.00 45 1008.1
20260505160433 77 16 5.2 12.2 0.00 0.00 0.00 48 1008.1
20260505153154 76 239 4.3 13.9 0.00 0.00 0.00 49 1008.5
20260505152653 76 90 6.1 15.6 0.00 0.00 0.00 50 1008.6
20260505152156 76 261 5.2 15.6 0.00 0.00 0.00 50 1008.7
20260505152130 75 280 6.1 15.6 0.00 0.00 0.00 48 1008.9
20260505151747 75 227 6.1 15.6 0.00 0.00 0.00 50 1008.7
20260505150654 75 215 5.2 14.8 0.00 0.00 0.00 50 1008.8
20260505150152 75 143 4.3 12.2 0.00 0.00 0.00 54 1008.8
20260505140635 73 208 3.5 9.6 0.00 0.00 0.00 53 1008.8
20260505140135 72 224 3.5 10.4 0.00 0.00 0.00 56 1008.8